aviador You're here:

LFBH Decoded Metar

LA ROCHELLE/LALE in FRANCE
Report Time2018-02-22 08:30:00
UTC Time2018-02-22 08:47:42
Flight Rules ifr IFR
Wind020° at 12 kt
W.Decomp.*RWY 09: 4.3 kt HW 11.2 kt LCW
W.Rank020° ranks 15
Current wind is above 020° avg. (6.7)
Visibility3500 m
Phenomena:Mist
Clouds:N/A
Expected CloudBase > 800 ft AGL from Temp-Dew spread
CeilingNone
Temp01°C (ISA -14)
Dew Point-1°C (87% RH)
AAT-5.4°C
QNH1017 hPa
Density Alt-1,726 ft
Elevation33 ft
Report Wrong Elevation
Raw Report
LFBH 220830Z AUTO 02012KT 3500 BR NSC 01/M01 Q1017 BECMG 7000
NSW=

Extra information for LFBH:More info

Metar Taf Metar & Taf Last 4 Metars F.Rules Stats Wind Profile Meteogram Temp Stats Airport Information Weather charts Add Link Nearby VenuesMetar ALERT Operation Metar Decoded Social comments